Time;durP1;ratioP1;P1;durP2;ratioP2;P2;SDS_P1;SDS_P2;PMS_P1;PMS_P2;Temp;Humidity;BMP_temperature;BMP_pressure;BME280_temperature;BME280_humidity;BME280_pressure;Samples;Min_cycle;Max_cycle;Signal;HPM_P1;HPM_P2
2023/12/10 00:00:09;;;;;;;44.47;24.45;;;;;;;;;;6147814;23;20022;-73
2023/12/10 00:02:35;;;;;;;44.33;22.83;;;;;;;;;;6146907;23;20014;-72
2023/12/10 00:05:01;;;;;;;46.50;23.77;;;;;;;;;;6148302;23;20388;-72
2023/12/10 00:07:27;;;;;;;51.22;25.55;;;;;;;;;;6146465;23;20018;-72
2023/12/10 00:09:53;;;;;;;54.85;24.77;;;;;;;;;;6146850;23;20009;-72
2023/12/10 00:12:20;;;;;;;44.45;24.45;;;;;;;;;;6147296;23;20017;-72
2023/12/10 00:14:52;;;;;;;47.42;26.42;;;;;;;;;;6147465;23;20016;-73
2023/12/10 00:17:18;;;;;;;39.15;22.13;;;;;;;;;;6148153;23;20013;-71
2023/12/10 00:19:44;;;;;;;38.42;21.10;;;;;;;;;;6124049;23;20685;-73
2023/12/10 00:22:10;;;;;;;42.88;21.98;;;;;;;;;;6149248;23;20017;-71
2023/12/10 00:24:36;;;;;;;33.63;18.20;;;;;;;;;;6147982;23;20068;-72
2023/12/10 00:27:02;;;;;;;35.72;19.35;;;;;;;;;;6121939;23;20005;-72
2023/12/10 00:29:28;;;;;;;48.20;20.38;;;;;;;;;;6144804;23;20036;-73
2023/12/10 00:31:54;;;;;;;44.88;19.63;;;;;;;;;;6147694;23;20097;-71
2023/12/10 00:34:20;;;;;;;39.15;19.40;;;;;;;;;;6146682;23;20452;-73
2023/12/10 00:36:45;;;;;;;35.15;18.35;;;;;;;;;;6147966;23;20041;-72
2023/12/10 00:39:12;;;;;;;37.05;17.60;;;;;;;;;;6147921;23;20024;-72
2023/12/10 00:41:38;;;;;;;32.85;17.25;;;;;;;;;;6122204;23;20016;-72
2023/12/10 00:44:04;;;;;;;36.17;18.67;;;;;;;;;;6146848;23;20014;-71
2023/12/10 00:46:29;;;;;;;37.05;17.83;;;;;;;;;;6147987;23;20072;-72
2023/12/10 00:48:55;;;;;;;34.47;16.77;;;;;;;;;;6146352;23;20089;-73
2023/12/10 00:51:22;;;;;;;31.60;15.32;;;;;;;;;;6145332;23;20084;-72
2023/12/10 00:53:49;;;;;;;41.28;20.13;;;;;;;;;;6149273;23;20456;-72
2023/12/10 00:56:16;;;;;;;41.53;22.10;;;;;;;;;;6149572;23;20010;-72
2023/12/10 00:58:42;;;;;;;35.15;18.48;;;;;;;;;;6150566;23;20013;-73
2023/12/10 01:01:08;;;;;;;34.53;18.17;;;;;;;;;;6149259;23;20029;-72
2023/12/10 01:03:36;;;;;;;37.47;19.70;;;;;;;;;;6149262;23;20444;-72
2023/12/10 01:06:06;;;;;;;33.90;17.23;;;;;;;;;;6121522;23;20088;-72
2023/12/10 01:08:32;;;;;;;33.92;18.42;;;;;;;;;;6149740;23;20035;-71
2023/12/10 01:10:58;;;;;;;33.63;17.70;;;;;;;;;;6149619;23;20084;-73
2023/12/10 01:13:24;;;;;;;38.45;20.77;;;;;;;;;;6149181;23;20024;-73
2023/12/10 01:15:57;;;;;;;35.03;17.88;;;;;;;;;;6149231;23;20013;-73
2023/12/10 01:18:23;;;;;;;42.63;21.98;;;;;;;;;;6149227;23;20040;-73
2023/12/10 01:20:49;;;;;;;40.63;21.27;;;;;;;;;;6149206;23;20024;-73
2023/12/10 01:23:15;;;;;;;41.03;21.58;;;;;;;;;;6148206;23;20014;-72
2023/12/10 01:25:43;;;;;;;39.88;21.23;;;;;;;;;;6147451;23;20017;-72
2023/12/10 01:28:12;;;;;;;37.90;20.00;;;;;;;;;;6147892;23;20021;-72
2023/12/10 01:30:38;;;;;;;36.60;19.92;;;;;;;;;;6147349;23;20013;-72
2023/12/10 01:33:04;;;;;;;32.40;18.23;;;;;;;;;;6122965;23;20014;-72
2023/12/10 01:35:30;;;;;;;36.25;18.58;;;;;;;;;;6149437;23;20416;-73
2023/12/10 01:37:56;;;;;;;30.55;16.85;;;;;;;;;;6149203;23;20487;-71
2023/12/10 01:40:22;;;;;;;44.72;20.88;;;;;;;;;;6148042;23;20024;-72
2023/12/10 01:42:49;;;;;;;40.03;19.98;;;;;;;;;;6149054;23;20096;-72
2023/12/10 01:45:15;;;;;;;38.80;21.25;;;;;;;;;;6150003;23;20400;-73
2023/12/10 01:47:42;;;;;;;41.25;21.67;;;;;;;;;;6149322;23;20344;-72
2023/12/10 01:50:12;;;;;;;39.72;20.80;;;;;;;;;;6154536;23;20465;-72
2023/12/10 01:52:44;;;;;;;37.42;19.02;;;;;;;;;;6155473;23;20017;-72
2023/12/10 01:55:11;;;;;;;34.67;18.20;;;;;;;;;;6158187;23;20012;-72
2023/12/10 01:57:38;;;;;;;36.33;19.83;;;;;;;;;;6161756;23;20447;-72
2023/12/10 02:00:06;;;;;;;36.25;17.52;;;;;;;;;;6157385;23;20612;-72
2023/12/10 02:02:39;;;;;;;37.20;17.40;;;;;;;;;;6155842;23;20024;-72
2023/12/10 02:05:09;;;;;;;36.25;18.42;;;;;;;;;;6155191;23;20247;-72
2023/12/10 02:07:35;;;;;;;30.27;15.70;;;;;;;;;;6154456;23;20010;-72
2023/12/10 02:10:04;;;;;;;33.55;17.67;;;;;;;;;;6154746;23;20020;-71
2023/12/10 02:12:31;;;;;;;32.50;16.85;;;;;;;;;;6154866;23;20020;-72
2023/12/10 02:14:58;;;;;;;29.77;16.42;;;;;;;;;;6155056;23;20010;-72
2023/12/10 02:17:23;;;;;;;34.90;16.42;;;;;;;;;;6154995;23;20009;-73
2023/12/10 02:19:50;;;;;;;41.63;18.60;;;;;;;;;;6155031;23;20028;-72
2023/12/10 02:22:21;;;;;;;42.85;21.00;;;;;;;;;;6155426;23;20020;-72
2023/12/10 02:24:59;;;;;;;36.50;19.17;;;;;;;;;;6154728;23;20009;-72
2023/12/10 02:27:25;;;;;;;35.45;18.90;;;;;;;;;;6154885;23;20009;-72
2023/12/10 02:29:51;;;;;;;32.03;17.05;;;;;;;;;;6128930;23;20010;-72
2023/12/10 02:32:17;;;;;;;35.10;18.80;;;;;;;;;;6154745;23;20023;-72
2023/12/10 02:34:43;;;;;;;33.85;18.40;;;;;;;;;;6155261;23;20081;-73
2023/12/10 02:37:09;;;;;;;37.42;16.65;;;;;;;;;;6155192;23;20013;-72
2023/12/10 02:39:34;;;;;;;33.05;16.35;;;;;;;;;;6154908;23;20009;-72
2023/12/10 02:42:00;;;;;;;30.67;17.35;;;;;;;;;;6154769;23;20089;-72
2023/12/10 02:44:26;;;;;;;37.35;16.67;;;;;;;;;;6153083;23;20059;-72
2023/12/10 02:46:52;;;;;;;32.10;16.45;;;;;;;;;;6153231;23;20001;-72
2023/12/10 02:49:18;;;;;;;28.90;15.15;;;;;;;;;;6155109;23;20020;-72
2023/12/10 02:51:44;;;;;;;27.30;15.90;;;;;;;;;;6128775;23;20016;-72
2023/12/10 02:54:09;;;;;;;33.10;16.10;;;;;;;;;;6153907;23;20109;-72
2023/12/10 02:56:35;;;;;;;29.27;14.70;;;;;;;;;;6154956;23;20024;-72
2023/12/10 02:59:01;;;;;;;30.08;15.15;;;;;;;;;;6154861;23;20086;-73
2023/12/10 03:01:27;;;;;;;31.40;14.52;;;;;;;;;;6129030;23;20028;-72
2023/12/10 03:03:53;;;;;;;29.15;14.45;;;;;;;;;;6154582;23;20035;-73
2023/12/10 03:06:19;;;;;;;27.85;14.98;;;;;;;;;;6154846;23;20515;-72
2023/12/10 03:08:45;;;;;;;26.92;14.27;;;;;;;;;;6154790;23;20043;-73
2023/12/10 03:11:11;;;;;;;28.05;15.10;;;;;;;;;;6128400;23;20006;-72
2023/12/10 03:13:37;;;;;;;26.02;13.88;;;;;;;;;;6154631;23;20009;-72
2023/12/10 03:16:03;;;;;;;27.75;13.52;;;;;;;;;;6155586;23;20024;-72
2023/12/10 03:18:29;;;;;;;23.55;12.32;;;;;;;;;;6154657;23;20478;-71
2023/12/10 03:20:55;;;;;;;27.63;12.45;;;;;;;;;;6154568;23;20013;-72
2023/12/10 03:23:21;;;;;;;27.75;14.88;;;;;;;;;;6154213;23;20084;-72
2023/12/10 03:25:46;;;;;;;26.35;13.63;;;;;;;;;;6154591;23;20044;-72
2023/12/10 03:28:12;;;;;;;26.60;13.77;;;;;;;;;;6154650;23;20009;-71
2023/12/10 03:30:38;;;;;;;27.23;14.70;;;;;;;;;;6154870;23;20013;-72
2023/12/10 03:33:04;;;;;;;31.73;14.38;;;;;;;;;;6154248;23;20009;-72
2023/12/10 03:35:30;;;;;;;27.40;14.25;;;;;;;;;;6155112;23;20431;-73
2023/12/10 03:37:56;;;;;;;28.73;15.23;;;;;;;;;;6154746;23;20060;-73
2023/12/10 03:40:22;;;;;;;28.52;15.63;;;;;;;;;;6154621;23;20013;-72
2023/12/10 03:42:47;;;;;;;27.73;16.23;;;;;;;;;;6154666;23;20005;-72
2023/12/10 03:45:14;;;;;;;28.77;16.13;;;;;;;;;;6153003;23;20029;-72
2023/12/10 03:47:46;;;;;;;32.58;17.17;;;;;;;;;;6154511;23;20490;-72
2023/12/10 03:50:13;;;;;;;32.13;15.95;;;;;;;;;;6154453;23;20010;-72
2023/12/10 03:52:41;;;;;;;35.50;15.85;;;;;;;;;;6128374;23;20012;-72
2023/12/10 03:55:08;;;;;;;26.05;14.68;;;;;;;;;;6154542;23;20013;-72
2023/12/10 03:57:34;;;;;;;27.05;14.65;;;;;;;;;;6154107;23;20006;-73
2023/12/10 04:00:01;;;;;;;30.83;16.20;;;;;;;;;;6154178;23;20299;-72
2023/12/10 04:02:26;;;;;;;27.35;14.73;;;;;;;;;;6152797;23;20317;-72
2023/12/10 04:04:53;;;;;;;30.27;14.80;;;;;;;;;;6154364;23;20016;-72
2023/12/10 04:07:20;;;;;;;29.45;14.70;;;;;;;;;;6154828;23;20084;-72
2023/12/10 04:09:46;;;;;;;30.35;15.57;;;;;;;;;;6154359;23;20016;-74
2023/12/10 04:12:11;;;;;;;29.85;15.95;;;;;;;;;;6155086;23;20033;-72
2023/12/10 04:14:37;;;;;;;39.40;17.73;;;;;;;;;;6155663;23;20336;-72
2023/12/10 04:17:05;;;;;;;35.05;19.30;;;;;;;;;;6154265;23;20013;-72
2023/12/10 04:19:30;;;;;;;35.92;18.85;;;;;;;;;;6154330;23;20440;-72
2023/12/10 04:21:56;;;;;;;30.60;17.38;;;;;;;;;;6154649;23;20028;-72
2023/12/10 04:24:22;;;;;;;31.48;17.23;;;;;;;;;;6155946;23;20009;-73
2023/12/10 04:26:48;;;;;;;37.63;17.67;;;;;;;;;;6157643;23;20045;-72
2023/12/10 04:29:13;;;;;;;33.13;16.05;;;;;;;;;;6157654;23;20096;-72
2023/12/10 04:31:39;;;;;;;30.02;15.30;;;;;;;;;;6157867;23;20020;-73
2023/12/10 04:34:05;;;;;;;31.65;16.17;;;;;;;;;;6157320;23;20351;-72
2023/12/10 04:36:31;;;;;;;31.85;15.27;;;;;;;;;;6157224;23;20013;-73
2023/12/10 04:38:57;;;;;;;28.88;14.23;;;;;;;;;;6157916;23;20021;-72
2023/12/10 04:41:23;;;;;;;32.80;16.40;;;;;;;;;;6155672;23;20017;-72
2023/12/10 04:43:49;;;;;;;34.58;15.88;;;;;;;;;;6157483;23;20028;-72
2023/12/10 04:46:16;;;;;;;32.13;15.63;;;;;;;;;;6155550;23;20104;-72
2023/12/10 04:48:43;;;;;;;32.47;16.83;;;;;;;;;;6157342;23;20013;-72
2023/12/10 04:51:09;;;;;;;33.53;17.27;;;;;;;;;;6131236;23;20064;-72
2023/12/10 04:53:35;;;;;;;31.35;15.88;;;;;;;;;;6157463;23;20020;-72
2023/12/10 04:56:01;;;;;;;34.97;18.05;;;;;;;;;;6131141;23;20018;-72
2023/12/10 04:58:27;;;;;;;36.28;16.17;;;;;;;;;;6157311;23;20009;-72
2023/12/10 05:00:53;;;;;;;31.83;15.65;;;;;;;;;;6156744;23;20337;-73
2023/12/10 05:03:19;;;;;;;31.85;16.77;;;;;;;;;;6157553;23;20013;-73
2023/12/10 05:05:44;;;;;;;29.23;15.95;;;;;;;;;;6156966;23;20005;-72
2023/12/10 05:08:10;;;;;;;26.00;14.07;;;;;;;;;;6156779;23;20440;-72
2023/12/10 05:10:37;;;;;;;30.55;15.38;;;;;;;;;;6156731;23;20037;-73
2023/12/10 05:13:03;;;;;;;31.40;15.43;;;;;;;;;;6156687;23;20466;-72
2023/12/10 05:15:29;;;;;;;27.77;14.90;;;;;;;;;;6157476;23;20494;-73
2023/12/10 05:17:55;;;;;;;28.73;15.45;;;;;;;;;;6156557;23;20009;-72
2023/12/10 05:20:21;;;;;;;32.25;17.00;;;;;;;;;;6156746;23;20006;-72
2023/12/10 05:22:46;;;;;;;31.80;16.27;;;;;;;;;;6157269;23;20344;-72
2023/12/10 05:25:12;;;;;;;35.10;17.25;;;;;;;;;;6156795;23;20337;-73
2023/12/10 05:27:38;;;;;;;30.98;16.08;;;;;;;;;;6157186;23;20013;-73
2023/12/10 05:30:05;;;;;;;31.92;17.83;;;;;;;;;;6158444;23;20089;-72
2023/12/10 05:32:30;;;;;;;33.90;17.40;;;;;;;;;;6163346;23;20010;-73
2023/12/10 05:34:56;;;;;;;40.85;18.63;;;;;;;;;;6159154;23;20020;-73
2023/12/10 05:37:22;;;;;;;36.80;18.17;;;;;;;;;;6154561;23;20039;-73
2023/12/10 05:39:48;;;;;;;46.65;18.33;;;;;;;;;;6153705;23;20092;-73
2023/12/10 05:42:14;;;;;;;26.83;15.18;;;;;;;;;;6155183;23;20053;-72
2023/12/10 05:44:40;;;;;;;25.20;12.90;;;;;;;;;;6155350;23;20087;-72
2023/12/10 05:47:06;;;;;;;32.63;15.60;;;;;;;;;;6155147;23;20428;-72
2023/12/10 05:49:31;;;;;;;35.85;16.70;;;;;;;;;;6155540;23;20344;-72
2023/12/10 05:51:57;;;;;;;28.05;16.10;;;;;;;;;;6155260;23;20009;-72
2023/12/10 05:54:23;;;;;;;29.45;15.88;;;;;;;;;;6155321;23;20064;-72
2023/12/10 05:56:49;;;;;;;35.20;16.98;;;;;;;;;;6155044;23;20041;-72
2023/12/10 05:59:16;;;;;;;31.30;15.60;;;;;;;;;;6154748;23;20010;-72
2023/12/10 06:01:42;;;;;;;33.20;16.52;;;;;;;;;;6155030;23;20093;-72
2023/12/10 06:04:08;;;;;;;31.05;16.83;;;;;;;;;;6154745;23;20349;-72
2023/12/10 06:06:33;;;;;;;41.15;18.63;;;;;;;;;;6155192;23;20012;-72
2023/12/10 06:08:59;;;;;;;31.85;16.95;;;;;;;;;;6155000;23;20063;-72
2023/12/10 06:11:25;;;;;;;31.98;17.15;;;;;;;;;;6155235;23;20005;-73
2023/12/10 06:13:52;;;;;;;31.98;17.65;;;;;;;;;;6154809;23;20428;-72
2023/12/10 06:16:18;;;;;;;29.10;15.38;;;;;;;;;;6155249;23;20020;-72
2023/12/10 06:18:43;;;;;;;25.02;13.98;;;;;;;;;;6154895;23;20010;-72
2023/12/10 06:21:09;;;;;;;25.20;12.68;;;;;;;;;;6155224;23;20092;-73
2023/12/10 06:23:35;;;;;;;24.98;12.23;;;;;;;;;;6154839;23;20323;-72
2023/12/10 06:26:01;;;;;;;26.05;13.15;;;;;;;;;;6154667;23;20013;-72
2023/12/10 06:28:27;;;;;;;27.95;15.60;;;;;;;;;;6155271;23;20024;-71
2023/12/10 06:30:53;;;;;;;27.33;14.82;;;;;;;;;;6155022;23;20372;-71
2023/12/10 06:33:19;;;;;;;37.65;14.85;;;;;;;;;;6155409;23;20093;-72
2023/12/10 06:35:45;;;;;;;26.48;14.07;;;;;;;;;;6154790;23;20017;-72
2023/12/10 06:38:10;;;;;;;25.25;14.80;;;;;;;;;;6154461;23;20009;-72
2023/12/10 06:40:36;;;;;;;22.30;13.07;;;;;;;;;;6154827;23;20010;-71
2023/12/10 06:43:03;;;;;;;23.75;13.70;;;;;;;;;;6154436;23;20037;-72
2023/12/10 06:45:28;;;;;;;25.95;13.57;;;;;;;;;;6154541;23;20009;-72
2023/12/10 06:47:54;;;;;;;28.20;13.38;;;;;;;;;;6128204;23;20317;-73
2023/12/10 06:50:21;;;;;;;25.55;15.05;;;;;;;;;;6154684;23;20040;-71
2023/12/10 06:52:48;;;;;;;22.98;13.38;;;;;;;;;;6154506;23;20527;-71
2023/12/10 06:55:14;;;;;;;26.60;14.13;;;;;;;;;;6154452;23;20022;-71
2023/12/10 06:57:39;;;;;;;26.25;14.27;;;;;;;;;;6154683;23;20014;-72
2023/12/10 07:00:06;;;;;;;25.15;15.63;;;;;;;;;;6154127;23;20056;-72
2023/12/10 07:02:32;;;;;;;25.40;14.65;;;;;;;;;;6152975;23;20025;-73
2023/12/10 07:04:58;;;;;;;22.65;14.23;;;;;;;;;;6154507;23;20087;-71
2023/12/10 07:07:23;;;;;;;28.95;15.15;;;;;;;;;;6154293;23;20013;-70
2023/12/10 07:09:49;;;;;;;33.70;17.75;;;;;;;;;;6154449;23;20010;-72
2023/12/10 07:12:15;;;;;;;27.95;16.40;;;;;;;;;;6153812;23;20016;-71
2023/12/10 07:14:41;;;;;;;30.40;17.08;;;;;;;;;;6154739;23;20029;-72
2023/12/10 07:17:07;;;;;;;29.23;17.40;;;;;;;;;;6154301;23;20397;-71
2023/12/10 07:19:32;;;;;;;29.98;17.42;;;;;;;;;;6154152;23;20032;-71
2023/12/10 07:21:58;;;;;;;27.58;15.95;;;;;;;;;;6154061;23;20324;-71
2023/12/10 07:24:24;;;;;;;28.83;16.02;;;;;;;;;;6153929;23;20436;-71
2023/12/10 07:26:50;;;;;;;30.42;17.85;;;;;;;;;;6154614;23;20020;-71
2023/12/10 07:29:17;;;;;;;29.33;16.42;;;;;;;;;;6153820;23;20448;-70
2023/12/10 07:31:43;;;;;;;25.70;15.68;;;;;;;;;;6154138;23;20024;-71
2023/12/10 07:34:09;;;;;;;28.15;16.17;;;;;;;;;;6154147;23;20448;-71
2023/12/10 07:36:34;;;;;;;24.20;15.45;;;;;;;;;;6154142;23;20037;-71
2023/12/10 07:39:00;;;;;;;24.48;15.32;;;;;;;;;;6154705;23;20028;-70
2023/12/10 07:41:26;;;;;;;27.17;15.60;;;;;;;;;;6154673;23;20503;-72
2023/12/10 07:43:52;;;;;;;25.23;14.02;;;;;;;;;;6149802;23;20384;-70
2023/12/10 07:46:18;;;;;;;22.17;13.60;;;;;;;;;;6153249;23;20016;-71
2023/12/10 07:48:43;;;;;;;24.02;15.00;;;;;;;;;;6153097;23;20013;-71
2023/12/10 07:51:09;;;;;;;25.45;14.45;;;;;;;;;;6152547;23;20010;-71
2023/12/10 07:53:35;;;;;;;27.25;16.17;;;;;;;;;;6153095;23;20020;-70
2023/12/10 07:56:01;;;;;;;27.98;16.42;;;;;;;;;;6153557;23;20010;-71
2023/12/10 07:58:27;;;;;;;32.10;19.10;;;;;;;;;;6152624;23;20013;-71
2023/12/10 08:00:53;;;;;;;31.08;19.02;;;;;;;;;;6152717;23;20392;-71
2023/12/10 08:03:19;;;;;;;34.15;18.85;;;;;;;;;;6126708;23;20009;-71
2023/12/10 08:05:45;;;;;;;36.13;22.33;;;;;;;;;;6152547;23;20018;-71
2023/12/10 08:08:11;;;;;;;54.78;32.80;;;;;;;;;;6153576;23;20039;-70
2023/12/10 08:10:37;;;;;;;44.67;27.75;;;;;;;;;;6152401;23;20446;-71
2023/12/10 08:13:03;;;;;;;41.17;25.60;;;;;;;;;;6150124;23;20503;-71
2023/12/10 08:15:29;;;;;;;38.53;24.10;;;;;;;;;;6123344;23;20092;-71
2023/12/10 08:17:54;;;;;;;36.55;24.05;;;;;;;;;;6153179;23;20021;-70
2023/12/10 08:20:20;;;;;;;34.40;21.33;;;;;;;;;;6152822;23;20024;-71
2023/12/10 08:22:48;;;;;;;38.03;23.27;;;;;;;;;;6151772;23;20362;-70
2023/12/10 08:25:14;;;;;;;42.22;24.35;;;;;;;;;;6153062;23;20013;-70
2023/12/10 08:27:40;;;;;;;38.92;23.48;;;;;;;;;;6153312;23;20079;-70
2023/12/10 08:30:06;;;;;;;38.75;24.90;;;;;;;;;;6152746;23;20399;-69
2023/12/10 08:32:33;;;;;;;40.47;23.98;;;;;;;;;;6152438;23;20012;-70
2023/12/10 08:34:59;;;;;;;43.60;24.80;;;;;;;;;;6152293;23;20076;-70
2023/12/10 08:37:24;;;;;;;39.72;24.60;;;;;;;;;;6126992;23;20018;-69
2023/12/10 08:39:50;;;;;;;40.85;26.17;;;;;;;;;;6152849;23;20041;-69
2023/12/10 08:42:16;;;;;;;41.95;25.55;;;;;;;;;;6153045;23;20083;-70
2023/12/10 08:44:42;;;;;;;44.00;23.73;;;;;;;;;;6154123;23;20017;-69
2023/12/10 08:47:08;;;;;;;36.72;22.08;;;;;;;;;;6153980;23;20050;-71
2023/12/10 08:49:34;;;;;;;36.75;23.80;;;;;;;;;;6127183;23;20470;-70
2023/12/10 08:52:00;;;;;;;39.20;22.58;;;;;;;;;;6153605;23;20037;-71
2023/12/10 08:54:26;;;;;;;38.10;22.10;;;;;;;;;;6154173;23;20459;-71
2023/12/10 08:56:52;;;;;;;39.05;20.83;;;;;;;;;;6153767;23;20013;-71
2023/12/10 08:59:17;;;;;;;35.42;21.73;;;;;;;;;;6153315;23;20344;-71
2023/12/10 09:01:43;;;;;;;33.20;20.75;;;;;;;;;;6151056;23;20400;-72
2023/12/10 09:04:09;;;;;;;35.45;18.27;;;;;;;;;;6153240;23;20013;-71
2023/12/10 09:06:35;;;;;;;30.20;17.13;;;;;;;;;;6151945;23;20025;-70
2023/12/10 09:09:01;;;;;;;35.05;18.20;;;;;;;;;;6155884;23;20325;-71
2023/12/10 09:11:27;;;;;;;32.40;18.27;;;;;;;;;;6156301;23;20093;-71
2023/12/10 09:13:53;;;;;;;34.50;19.83;;;;;;;;;;6155524;23;20035;-69
2023/12/10 09:16:20;;;;;;;41.92;19.33;;;;;;;;;;6155632;23;20036;-71
2023/12/10 09:18:47;;;;;;;42.17;20.52;;;;;;;;;;6129697;23;20478;-70
2023/12/10 09:21:13;;;;;;;45.05;21.23;;;;;;;;;;6155571;23;20098;-71
2023/12/10 09:23:39;;;;;;;39.17;21.77;;;;;;;;;;6155001;23;20057;-71
2023/12/10 09:26:05;;;;;;;38.45;21.02;;;;;;;;;;6155666;23;20020;-71
2023/12/10 09:28:30;;;;;;;36.20;21.35;;;;;;;;;;6155240;23;20005;-70
2023/12/10 09:30:56;;;;;;;41.20;23.83;;;;;;;;;;6155821;23;20012;-72
2023/12/10 09:33:22;;;;;;;47.88;25.05;;;;;;;;;;6155434;23;20343;-71
2023/12/10 09:35:48;;;;;;;42.92;24.63;;;;;;;;;;6154655;23;20010;-70
2023/12/10 09:38:14;;;;;;;46.25;25.38;;;;;;;;;;6155927;23;20084;-71
2023/12/10 09:40:39;;;;;;;46.60;24.50;;;;;;;;;;6154579;23;20010;-71
2023/12/10 09:43:05;;;;;;;40.47;24.85;;;;;;;;;;6154790;23;20006;-70
2023/12/10 09:45:32;;;;;;;47.00;25.17;;;;;;;;;;6155085;23;20054;-70
2023/12/10 09:47:59;;;;;;;43.00;25.20;;;;;;;;;;6153387;23;20020;-70
2023/12/10 09:50:25;;;;;;;40.70;24.58;;;;;;;;;;6155377;23;20428;-70
2023/12/10 09:52:53;;;;;;;47.80;27.80;;;;;;;;;;6154645;23;20018;-71
2023/12/10 09:55:20;;;;;;;44.35;26.50;;;;;;;;;;6154900;23;20013;-71
2023/12/10 09:57:46;;;;;;;50.95;28.55;;;;;;;;;;6155360;23;20041;-71
2023/12/10 10:00:13;;;;;;;50.85;28.05;;;;;;;;;;6154789;23;20006;-70
2023/12/10 10:02:39;;;;;;;55.13;28.40;;;;;;;;;;6154180;23;20370;-70
2023/12/10 10:05:07;;;;;;;48.63;28.70;;;;;;;;;;6154617;23;20013;-71
2023/12/10 10:07:33;;;;;;;46.50;26.45;;;;;;;;;;6154848;23;20013;-70
2023/12/10 10:09:59;;;;;;;46.53;28.92;;;;;;;;;;6154877;23;20111;-72
2023/12/10 10:12:31;;;;;;;51.75;27.85;;;;;;;;;;6153172;23;20013;-71
2023/12/10 10:14:58;;;;;;;54.88;30.25;;;;;;;;;;6154866;23;20021;-71
2023/12/10 10:17:32;;;;;;;62.00;30.80;;;;;;;;;;6154859;23;20299;-71
2023/12/10 10:19:58;;;;;;;;;;;;;;;;;;6154876;23;20024;-70
2023/12/10 10:22:25;;;;;;;50.40;29.45;;;;;;;;;;6154105;23;19916;-71
2023/12/10 10:24:52;;;;;;;48.53;29.38;;;;;;;;;;6154755;23;20021;-70
2023/12/10 10:27:18;;;;;;;52.53;31.20;;;;;;;;;;6155064;23;20068;-72
2023/12/10 10:29:44;;;;;;;54.17;30.90;;;;;;;;;;6154596;23;20396;-71
2023/12/10 10:32:16;;;;;;;57.13;31.13;;;;;;;;;;6154603;23;20042;-72
2023/12/10 10:34:46;;;;;;;50.45;29.38;;;;;;;;;;6154573;23;20089;-71
2023/12/10 10:37:16;;;;;;;53.83;30.63;;;;;;;;;;6128559;23;20047;-71
2023/12/10 10:39:44;;;;;;;58.05;28.55;;;;;;;;;;6154422;23;20014;-72
2023/12/10 10:42:10;;;;;;;63.58;26.10;;;;;;;;;;6154874;23;20006;-71
2023/12/10 10:44:40;;;;;;;45.67;25.60;;;;;;;;;;6154709;23;20009;-70
2023/12/10 10:47:07;;;;;;;46.85;25.80;;;;;;;;;;6155111;23;20025;-72
2023/12/10 10:49:44;;;;;;;38.90;21.15;;;;;;;;;;6154298;23;20432;-69
2023/12/10 10:52:19;;;;;;;37.80;21.38;;;;;;;;;;6154296;23;20037;-70
2023/12/10 10:54:46;;;;;;;32.17;19.88;;;;;;;;;;6154292;23;20043;-72
2023/12/10 10:57:11;;;;;;;38.08;18.10;;;;;;;;;;6154247;23;20388;-70
2023/12/10 10:59:38;;;;;;;29.00;17.73;;;;;;;;;;6154200;23;20105;-71
2023/12/10 11:02:08;;;;;;;32.45;18.13;;;;;;;;;;6154300;23;20005;-69
2023/12/10 11:04:37;;;;;;;31.38;18.63;;;;;;;;;;6154433;23;20088;-71
2023/12/10 11:07:05;;;;;;;31.98;18.17;;;;;;;;;;6153670;23;20328;-71
2023/12/10 11:09:31;;;;;;;35.75;18.98;;;;;;;;;;6151529;23;20077;-71
2023/12/10 11:12:00;;;;;;;32.65;18.70;;;;;;;;;;6152819;23;20353;-72
2023/12/10 11:14:29;;;;;;;33.92;19.15;;;;;;;;;;6154010;23;20009;-71
2023/12/10 11:17:02;;;;;;;32.00;19.33;;;;;;;;;;6154305;23;20017;-71
2023/12/10 11:19:32;;;;;;;33.75;19.38;;;;;;;;;;6153384;23;20009;-72
2023/12/10 11:22:01;;;;;;;33.60;19.83;;;;;;;;;;6153846;23;20009;-71
2023/12/10 11:24:27;;;;;;;30.40;18.73;;;;;;;;;;6152681;23;20014;-71
2023/12/10 11:26:53;;;;;;;39.47;22.33;;;;;;;;;;6154396;23;20021;-72
2023/12/10 11:29:19;;;;;;;33.33;18.25;;;;;;;;;;6155590;23;20017;-71
2023/12/10 11:31:45;;;;;;;36.38;20.02;;;;;;;;;;6154509;23;20036;-71
2023/12/10 11:34:11;;;;;;;48.83;25.30;;;;;;;;;;6153106;23;20470;-73
2023/12/10 11:36:37;;;;;;;41.10;23.02;;;;;;;;;;6153879;23;20052;-72
2023/12/10 11:39:03;;;;;;;36.47;19.25;;;;;;;;;;6154134;23;20028;-71
2023/12/10 11:41:29;;;;;;;39.55;20.80;;;;;;;;;;6154008;23;20380;-72
2023/12/10 11:43:55;;;;;;;34.03;20.50;;;;;;;;;;6154271;23;20040;-71
2023/12/10 11:46:22;;;;;;;41.95;22.65;;;;;;;;;;6153440;23;20010;-71
2023/12/10 11:48:50;;;;;;;40.47;21.33;;;;;;;;;;6152851;23;20044;-71
2023/12/10 11:51:17;;;;;;;34.20;20.50;;;;;;;;;;6154281;23;20040;-71
2023/12/10 11:53:46;;;;;;;34.88;18.60;;;;;;;;;;6128284;23;20014;-71
2023/12/10 11:56:12;;;;;;;33.05;18.98;;;;;;;;;;6154121;23;20010;-71
2023/12/10 11:58:42;;;;;;;32.05;17.75;;;;;;;;;;6153980;23;20036;-71
2023/12/10 12:01:08;;;;;;;32.95;19.35;;;;;;;;;;6153605;23;20005;-71
2023/12/10 12:03:34;;;;;;;34.15;17.77;;;;;;;;;;6152062;23;20020;-71
2023/12/10 12:06:00;;;;;;;38.55;18.05;;;;;;;;;;6128156;23;20037;-71
2023/12/10 12:08:27;;;;;;;32.03;17.42;;;;;;;;;;6154595;23;20017;-71
2023/12/10 12:10:57;;;;;;;31.00;16.20;;;;;;;;;;6153672;23;20029;-71
2023/12/10 12:13:23;;;;;;;28.08;15.95;;;;;;;;;;6153524;23;20084;-71
2023/12/10 12:15:53;;;;;;;26.08;16.25;;;;;;;;;;6154224;23;20397;-71
2023/12/10 12:18:26;;;;;;;37.92;18.65;;;;;;;;;;6154025;23;20092;-71
2023/12/10 12:20:52;;;;;;;33.87;18.93;;;;;;;;;;6154133;23;20010;-71
2023/12/10 12:23:18;;;;;;;40.53;20.23;;;;;;;;;;6153966;23;20013;-72
2023/12/10 12:25:44;;;;;;;28.08;15.60;;;;;;;;;;6154057;23;20021;-71
2023/12/10 12:28:10;;;;;;;29.58;16.17;;;;;;;;;;6154322;23;20005;-71
2023/12/10 12:30:37;;;;;;;26.00;15.43;;;;;;;;;;6154060;23;20344;-71
2023/12/10 12:33:03;;;;;;;25.95;13.40;;;;;;;;;;6153843;23;20013;-72
2023/12/10 12:35:30;;;;;;;27.50;15.27;;;;;;;;;;6154292;23;20018;-71
2023/12/10 12:37:57;;;;;;;36.22;17.52;;;;;;;;;;6154860;23;20023;-72
2023/12/10 12:40:25;;;;;;;36.60;17.63;;;;;;;;;;6153946;23;20014;-71
2023/12/10 12:42:51;;;;;;;28.25;15.52;;;;;;;;;;6153888;23;20036;-72
2023/12/10 12:45:19;;;;;;;28.73;16.08;;;;;;;;;;6154344;23;20086;-72
2023/12/10 12:47:48;;;;;;;28.02;16.65;;;;;;;;;;6156129;23;20010;-71
2023/12/10 12:50:13;;;;;;;33.25;17.60;;;;;;;;;;6155829;23;20013;-71
2023/12/10 12:52:39;;;;;;;31.50;17.08;;;;;;;;;;6155816;23;20022;-71
2023/12/10 12:55:06;;;;;;;35.17;19.20;;;;;;;;;;6155520;23;20090;-70
2023/12/10 12:57:32;;;;;;;32.97;18.48;;;;;;;;;;6130083;23;20013;-71
2023/12/10 12:59:58;;;;;;;34.63;17.40;;;;;;;;;;6155971;23;20013;-72
2023/12/10 13:02:24;;;;;;;32.10;18.13;;;;;;;;;;6155779;23;20009;-70
2023/12/10 13:04:50;;;;;;;31.00;18.13;;;;;;;;;;6155771;23;20020;-71
2023/12/10 13:07:16;;;;;;;44.97;22.38;;;;;;;;;;6155900;23;20013;-71
2023/12/10 13:09:42;;;;;;;32.83;18.52;;;;;;;;;;6155680;23;20021;-71
2023/12/10 13:12:11;;;;;;;36.25;20.45;;;;;;;;;;6155556;23;20010;-71
2023/12/10 13:14:37;;;;;;;33.45;19.05;;;;;;;;;;6155485;23;20073;-71
2023/12/10 13:17:04;;;;;;;34.88;20.17;;;;;;;;;;6155686;23;20009;-71
2023/12/10 13:19:30;;;;;;;33.65;19.55;;;;;;;;;;6155667;23;20017;-70
2023/12/10 13:21:56;;;;;;;35.13;20.05;;;;;;;;;;6155696;23;20462;-71
2023/12/10 13:24:22;;;;;;;36.80;20.55;;;;;;;;;;6154752;23;20033;-71
2023/12/10 13:26:48;;;;;;;33.55;19.13;;;;;;;;;;6155202;23;20060;-71
2023/12/10 13:29:15;;;;;;;40.65;22.38;;;;;;;;;;6155228;23;20462;-70
2023/12/10 13:31:41;;;;;;;39.97;21.60;;;;;;;;;;6155061;23;20383;-71
2023/12/10 13:34:07;;;;;;;36.10;21.00;;;;;;;;;;6155291;23;20016;-70
2023/12/10 13:36:34;;;;;;;41.17;23.58;;;;;;;;;;6155645;23;20448;-70
2023/12/10 13:39:00;;;;;;;38.92;22.98;;;;;;;;;;6154045;23;20033;-70
2023/12/10 13:41:26;;;;;;;42.67;21.85;;;;;;;;;;6155338;23;20023;-70
2023/12/10 13:43:52;;;;;;;38.80;21.58;;;;;;;;;;6155454;23;20029;-70
2023/12/10 13:46:18;;;;;;;46.25;24.45;;;;;;;;;;6155132;23;20014;-71
2023/12/10 13:48:44;;;;;;;45.67;22.52;;;;;;;;;;6155443;23;20052;-71
2023/12/10 13:51:11;;;;;;;43.60;23.73;;;;;;;;;;6155558;23;20451;-71
2023/12/10 13:53:37;;;;;;;47.15;24.83;;;;;;;;;;6155403;23;20014;-71
2023/12/10 13:56:04;;;;;;;71.82;29.05;;;;;;;;;;6154883;23;20009;-71
2023/12/10 13:58:29;;;;;;;51.90;26.77;;;;;;;;;;6129393;23;20037;-71
2023/12/10 14:00:55;;;;;;;52.47;25.92;;;;;;;;;;6154831;23;20056;-71
2023/12/10 14:03:21;;;;;;;56.67;29.23;;;;;;;;;;6155206;23;20014;-70
2023/12/10 14:05:47;;;;;;;74.85;31.70;;;;;;;;;;6155476;23;20025;-71
2023/12/10 14:08:13;;;;;;;54.30;27.13;;;;;;;;;;6145442;23;20460;-71
2023/12/10 14:10:39;;;;;;;50.75;24.48;;;;;;;;;;6154633;23;20013;-72
2023/12/10 14:13:05;;;;;;;49.13;23.02;;;;;;;;;;6154558;23;20140;-71